sensor_id;sensor_type;location;lat;lon;timestamp;P1;durP1;ratioP1;P2;durP2;ratioP2
65572;SDS011;52214;50.940;13.996;2023-03-15T00:00:28;3.30;;;1.10;;
65572;SDS011;52214;50.940;13.996;2023-03-15T00:02:54;3.43;;;1.27;;
65572;SDS011;52214;50.940;13.996;2023-03-15T00:05:20;2.85;;;1.10;;
65572;SDS011;52214;50.940;13.996;2023-03-15T00:07:46;3.93;;;1.00;;
65572;SDS011;52214;50.940;13.996;2023-03-15T00:10:12;4.30;;;1.10;;
65572;SDS011;52214;50.940;13.996;2023-03-15T00:12:38;3.53;;;1.27;;
65572;SDS011;52214;50.940;13.996;2023-03-15T00:15:07;3.13;;;1.10;;
65572;SDS011;52214;50.940;13.996;2023-03-15T00:17:33;3.70;;;1.02;;
65572;SDS011;52214;50.940;13.996;2023-03-15T00:19:59;2.72;;;0.93;;
65572;SDS011;52214;50.940;13.996;2023-03-15T00:22:25;3.60;;;1.10;;
65572;SDS011;52214;50.940;13.996;2023-03-15T00:24:51;3.90;;;0.90;;
65572;SDS011;52214;50.940;13.996;2023-03-15T00:27:17;4.90;;;1.00;;
65572;SDS011;52214;50.940;13.996;2023-03-15T00:29:42;3.55;;;1.15;;
65572;SDS011;52214;50.940;13.996;2023-03-15T00:32:08;2.83;;;1.03;;
65572;SDS011;52214;50.940;13.996;2023-03-15T00:34:34;3.63;;;1.25;;
65572;SDS011;52214;50.940;13.996;2023-03-15T00:36:59;3.00;;;0.90;;
65572;SDS011;52214;50.940;13.996;2023-03-15T00:39:25;3.28;;;0.82;;
65572;SDS011;52214;50.940;13.996;2023-03-15T00:41:51;3.33;;;0.90;;
65572;SDS011;52214;50.940;13.996;2023-03-15T00:44:22;3.17;;;0.90;;
65572;SDS011;52214;50.940;13.996;2023-03-15T00:46:48;3.00;;;0.90;;
65572;SDS011;52214;50.940;13.996;2023-03-15T00:49:15;3.07;;;0.90;;
65572;SDS011;52214;50.940;13.996;2023-03-15T00:51:40;4.38;;;1.08;;
65572;SDS011;52214;50.940;13.996;2023-03-15T00:54:06;2.43;;;0.90;;
65572;SDS011;52214;50.940;13.996;2023-03-15T00:56:33;3.47;;;1.15;;
65572;SDS011;52214;50.940;13.996;2023-03-15T00:59:00;2.85;;;0.98;;
65572;SDS011;52214;50.940;13.996;2023-03-15T01:01:27;3.47;;;1.10;;
65572;SDS011;52214;50.940;13.996;2023-03-15T01:03:54;2.45;;;0.70;;
65572;SDS011;52214;50.940;13.996;2023-03-15T01:06:21;4.75;;;1.00;;
65572;SDS011;52214;50.940;13.996;2023-03-15T01:08:50;3.83;;;1.00;;
65572;SDS011;52214;50.940;13.996;2023-03-15T01:11:17;2.55;;;0.90;;
65572;SDS011;52214;50.940;13.996;2023-03-15T01:13:45;4.07;;;1.05;;
65572;SDS011;52214;50.940;13.996;2023-03-15T01:16:12;3.10;;;0.90;;
65572;SDS011;52214;50.940;13.996;2023-03-15T01:18:41;2.37;;;0.87;;
65572;SDS011;52214;50.940;13.996;2023-03-15T01:21:08;2.97;;;1.02;;
65572;SDS011;52214;50.940;13.996;2023-03-15T01:23:36;2.83;;;1.02;;
65572;SDS011;52214;50.940;13.996;2023-03-15T01:26:02;4.65;;;1.05;;
65572;SDS011;52214;50.940;13.996;2023-03-15T01:28:30;3.72;;;1.10;;
65572;SDS011;52214;50.940;13.996;2023-03-15T01:30:55;3.17;;;0.90;;
65572;SDS011;52214;50.940;13.996;2023-03-15T01:33:21;3.13;;;1.00;;
65572;SDS011;52214;50.940;13.996;2023-03-15T01:35:47;2.63;;;0.90;;
65572;SDS011;52214;50.940;13.996;2023-03-15T01:38:13;3.17;;;0.90;;
65572;SDS011;52214;50.940;13.996;2023-03-15T01:40:40;3.10;;;0.90;;
65572;SDS011;52214;50.940;13.996;2023-03-15T01:48:20;2.47;;;0.60;;
65572;SDS011;52214;50.940;13.996;2023-03-15T01:50:49;3.08;;;0.98;;
65572;SDS011;52214;50.940;13.996;2023-03-15T01:53:15;3.13;;;0.90;;
65572;SDS011;52214;50.940;13.996;2023-03-15T01:55:41;3.90;;;1.00;;
65572;SDS011;52214;50.940;13.996;2023-03-15T01:58:08;4.77;;;0.90;;
65572;SDS011;52214;50.940;13.996;2023-03-15T02:00:34;2.55;;;0.90;;
65572;SDS011;52214;50.940;13.996;2023-03-15T02:03:05;4.00;;;1.05;;
65572;SDS011;52214;50.940;13.996;2023-03-15T02:05:39;3.05;;;0.90;;
65572;SDS011;52214;50.940;13.996;2023-03-15T02:08:10;3.10;;;0.82;;
65572;SDS011;52214;50.940;13.996;2023-03-15T02:10:41;2.93;;;1.00;;
65572;SDS011;52214;50.940;13.996;2023-03-15T02:13:11;3.97;;;1.05;;
65572;SDS011;52214;50.940;13.996;2023-03-15T02:15:41;2.50;;;0.82;;
65572;SDS011;52214;50.940;13.996;2023-03-15T02:18:13;2.63;;;0.88;;
65572;SDS011;52214;50.940;13.996;2023-03-15T02:21:02;2.70;;;0.85;;
65572;SDS011;52214;50.940;13.996;2023-03-15T02:23:34;2.90;;;0.80;;
65572;SDS011;52214;50.940;13.996;2023-03-15T02:26:04;2.88;;;0.90;;
65572;SDS011;52214;50.940;13.996;2023-03-15T02:28:56;2.50;;;0.80;;
65572;SDS011;52214;50.940;13.996;2023-03-15T02:31:22;2.57;;;0.80;;
65572;SDS011;52214;50.940;13.996;2023-03-15T02:36:27;3.63;;;0.90;;
65572;SDS011;52214;50.940;13.996;2023-03-15T02:38:54;3.45;;;1.00;;
65572;SDS011;52214;50.940;13.996;2023-03-15T02:41:31;3.03;;;0.75;;
65572;SDS011;52214;50.940;13.996;2023-03-15T02:44:07;2.90;;;0.90;;
65572;SDS011;52214;50.940;13.996;2023-03-15T02:46:46;3.42;;;0.82;;
65572;SDS011;52214;50.940;13.996;2023-03-15T02:49:14;3.40;;;0.83;;
65572;SDS011;52214;50.940;13.996;2023-03-15T02:51:41;3.38;;;0.82;;
65572;SDS011;52214;50.940;13.996;2023-03-15T02:54:07;2.50;;;0.80;;
65572;SDS011;52214;50.940;13.996;2023-03-15T02:56:32;3.40;;;1.03;;
65572;SDS011;52214;50.940;13.996;2023-03-15T02:58:58;3.05;;;0.80;;
65572;SDS011;52214;50.940;13.996;2023-03-15T03:01:25;3.30;;;1.00;;
65572;SDS011;52214;50.940;13.996;2023-03-15T03:03:50;3.25;;;0.82;;
65572;SDS011;52214;50.940;13.996;2023-03-15T03:06:16;3.33;;;0.80;;
65572;SDS011;52214;50.940;13.996;2023-03-15T03:08:43;3.15;;;1.00;;
65572;SDS011;52214;50.940;13.996;2023-03-15T03:11:12;3.85;;;1.38;;
65572;SDS011;52214;50.940;13.996;2023-03-15T03:13:39;4.03;;;0.95;;
65572;SDS011;52214;50.940;13.996;2023-03-15T03:16:06;3.17;;;1.00;;
65572;SDS011;52214;50.940;13.996;2023-03-15T03:18:31;2.75;;;0.80;;
65572;SDS011;52214;50.940;13.996;2023-03-15T03:21:00;2.90;;;0.80;;
65572;SDS011;52214;50.940;13.996;2023-03-15T03:23:29;2.40;;;0.70;;
65572;SDS011;52214;50.940;13.996;2023-03-15T03:25:56;3.45;;;0.90;;
65572;SDS011;52214;50.940;13.996;2023-03-15T03:28:23;3.00;;;0.90;;
65572;SDS011;52214;50.940;13.996;2023-03-15T03:30:51;2.35;;;0.80;;
65572;SDS011;52214;50.940;13.996;2023-03-15T03:33:18;3.65;;;0.90;;
65572;SDS011;52214;50.940;13.996;2023-03-15T03:35:45;2.55;;;0.73;;
65572;SDS011;52214;50.940;13.996;2023-03-15T03:38:11;3.38;;;0.98;;
65572;SDS011;52214;50.940;13.996;2023-03-15T03:40:38;2.43;;;0.70;;
65572;SDS011;52214;50.940;13.996;2023-03-15T03:43:05;3.22;;;0.90;;
65572;SDS011;52214;50.940;13.996;2023-03-15T03:45:33;2.85;;;0.82;;
65572;SDS011;52214;50.940;13.996;2023-03-15T03:47:59;3.97;;;1.00;;
65572;SDS011;52214;50.940;13.996;2023-03-15T03:50:25;3.40;;;0.80;;
65572;SDS011;52214;50.940;13.996;2023-03-15T03:52:51;4.07;;;1.10;;
65572;SDS011;52214;50.940;13.996;2023-03-15T03:55:17;3.30;;;0.80;;
65572;SDS011;52214;50.940;13.996;2023-03-15T03:57:42;3.42;;;0.88;;
65572;SDS011;52214;50.940;13.996;2023-03-15T04:00:09;3.10;;;1.00;;
65572;SDS011;52214;50.940;13.996;2023-03-15T04:02:38;2.55;;;0.80;;
65572;SDS011;52214;50.940;13.996;2023-03-15T04:05:08;3.75;;;0.88;;
65572;SDS011;52214;50.940;13.996;2023-03-15T04:07:35;3.95;;;1.05;;
65572;SDS011;52214;50.940;13.996;2023-03-15T04:10:02;2.83;;;0.70;;
65572;SDS011;52214;50.940;13.996;2023-03-15T04:12:29;3.22;;;1.00;;
65572;SDS011;52214;50.940;13.996;2023-03-15T04:14:55;4.32;;;0.90;;
65572;SDS011;52214;50.940;13.996;2023-03-15T04:17:20;2.53;;;0.90;;
65572;SDS011;52214;50.940;13.996;2023-03-15T04:19:46;2.80;;;0.82;;
65572;SDS011;52214;50.940;13.996;2023-03-15T04:22:12;2.80;;;0.80;;
65572;SDS011;52214;50.940;13.996;2023-03-15T04:24:42;3.67;;;0.90;;
65572;SDS011;52214;50.940;13.996;2023-03-15T04:27:08;3.08;;;0.70;;
65572;SDS011;52214;50.940;13.996;2023-03-15T04:29:40;3.70;;;0.70;;
65572;SDS011;52214;50.940;13.996;2023-03-15T04:32:08;3.50;;;1.00;;
65572;SDS011;52214;50.940;13.996;2023-03-15T04:34:34;4.15;;;0.90;;
65572;SDS011;52214;50.940;13.996;2023-03-15T04:37:03;2.83;;;0.90;;
65572;SDS011;52214;50.940;13.996;2023-03-15T04:39:30;2.72;;;0.88;;
65572;SDS011;52214;50.940;13.996;2023-03-15T04:41:56;2.30;;;0.70;;
65572;SDS011;52214;50.940;13.996;2023-03-15T04:44:21;2.72;;;0.73;;
65572;SDS011;52214;50.940;13.996;2023-03-15T04:46:50;3.23;;;0.90;;
65572;SDS011;52214;50.940;13.996;2023-03-15T04:49:17;3.03;;;0.90;;
65572;SDS011;52214;50.940;13.996;2023-03-15T04:51:43;3.38;;;0.80;;
65572;SDS011;52214;50.940;13.996;2023-03-15T04:54:08;3.53;;;0.80;;
65572;SDS011;52214;50.940;13.996;2023-03-15T04:56:34;2.93;;;0.80;;
65572;SDS011;52214;50.940;13.996;2023-03-15T04:59:01;2.92;;;0.80;;
65572;SDS011;52214;50.940;13.996;2023-03-15T05:01:28;3.58;;;0.80;;
65572;SDS011;52214;50.940;13.996;2023-03-15T05:03:56;3.25;;;1.00;;
65572;SDS011;52214;50.940;13.996;2023-03-15T05:06:22;2.73;;;0.80;;
65572;SDS011;52214;50.940;13.996;2023-03-15T05:08:51;2.10;;;0.70;;
65572;SDS011;52214;50.940;13.996;2023-03-15T05:11:17;3.17;;;0.85;;
65572;SDS011;52214;50.940;13.996;2023-03-15T05:13:43;3.40;;;1.13;;
65572;SDS011;52214;50.940;13.996;2023-03-15T05:16:08;2.87;;;0.90;;
65572;SDS011;52214;50.940;13.996;2023-03-15T05:18:34;2.90;;;0.93;;
65572;SDS011;52214;50.940;13.996;2023-03-15T05:20:59;2.57;;;0.80;;
65572;SDS011;52214;50.940;13.996;2023-03-15T05:23:25;2.95;;;0.90;;
65572;SDS011;52214;50.940;13.996;2023-03-15T05:25:52;2.87;;;1.00;;
65572;SDS011;52214;50.940;13.996;2023-03-15T05:28:20;2.60;;;0.95;;
65572;SDS011;52214;50.940;13.996;2023-03-15T05:30:48;2.63;;;0.80;;
65572;SDS011;52214;50.940;13.996;2023-03-15T05:33:14;2.83;;;0.80;;
65572;SDS011;52214;50.940;13.996;2023-03-15T05:35:41;3.43;;;0.97;;
65572;SDS011;52214;50.940;13.996;2023-03-15T05:38:08;2.63;;;0.90;;
65572;SDS011;52214;50.940;13.996;2023-03-15T05:40:39;2.78;;;0.70;;
65572;SDS011;52214;50.940;13.996;2023-03-15T05:43:06;3.25;;;1.23;;
65572;SDS011;52214;50.940;13.996;2023-03-15T05:45:32;2.47;;;0.80;;
65572;SDS011;52214;50.940;13.996;2023-03-15T05:47:57;2.97;;;0.80;;
65572;SDS011;52214;50.940;13.996;2023-03-15T05:50:23;2.73;;;0.97;;
65572;SDS011;52214;50.940;13.996;2023-03-15T05:52:49;2.60;;;0.80;;
65572;SDS011;52214;50.940;13.996;2023-03-15T05:55:16;3.10;;;0.90;;
65572;SDS011;52214;50.940;13.996;2023-03-15T05:57:42;3.00;;;0.90;;
65572;SDS011;52214;50.940;13.996;2023-03-15T06:00:08;2.58;;;0.75;;
65572;SDS011;52214;50.940;13.996;2023-03-15T06:02:34;3.35;;;0.90;;
65572;SDS011;52214;50.940;13.996;2023-03-15T06:05:00;2.73;;;1.00;;
65572;SDS011;52214;50.940;13.996;2023-03-15T06:07:26;2.70;;;0.75;;
65572;SDS011;52214;50.940;13.996;2023-03-15T06:09:52;3.25;;;0.70;;
65572;SDS011;52214;50.940;13.996;2023-03-15T06:12:18;3.27;;;1.20;;
65572;SDS011;52214;50.940;13.996;2023-03-15T06:14:44;2.35;;;0.88;;
65572;SDS011;52214;50.940;13.996;2023-03-15T06:17:10;3.78;;;1.48;;
65572;SDS011;52214;50.940;13.996;2023-03-15T06:19:35;3.03;;;0.90;;
65572;SDS011;52214;50.940;13.996;2023-03-15T06:22:01;2.72;;;0.80;;
65572;SDS011;52214;50.940;13.996;2023-03-15T06:24:28;2.53;;;0.80;;
65572;SDS011;52214;50.940;13.996;2023-03-15T06:26:53;2.80;;;0.90;;
65572;SDS011;52214;50.940;13.996;2023-03-15T06:29:20;3.35;;;1.02;;
65572;SDS011;52214;50.940;13.996;2023-03-15T06:31:46;2.28;;;0.80;;
65572;SDS011;52214;50.940;13.996;2023-03-15T06:34:14;4.03;;;1.00;;
65572;SDS011;52214;50.940;13.996;2023-03-15T06:36:40;2.30;;;0.73;;
65572;SDS011;52214;50.940;13.996;2023-03-15T06:39:10;2.65;;;0.80;;
65572;SDS011;52214;50.940;13.996;2023-03-15T06:41:36;3.80;;;0.80;;
65572;SDS011;52214;50.940;13.996;2023-03-15T06:44:03;3.65;;;0.98;;
65572;SDS011;52214;50.940;13.996;2023-03-15T06:46:30;3.30;;;1.10;;
65572;SDS011;52214;50.940;13.996;2023-03-15T06:48:57;3.93;;;1.07;;
65572;SDS011;52214;50.940;13.996;2023-03-15T06:51:22;3.10;;;1.10;;
65572;SDS011;52214;50.940;13.996;2023-03-15T06:53:48;3.30;;;1.20;;
65572;SDS011;52214;50.940;13.996;2023-03-15T06:56:14;3.30;;;1.10;;
65572;SDS011;52214;50.940;13.996;2023-03-15T06:58:39;3.97;;;0.90;;
65572;SDS011;52214;50.940;13.996;2023-03-15T07:01:05;3.67;;;1.20;;
65572;SDS011;52214;50.940;13.996;2023-03-15T07:03:31;3.03;;;0.90;;
65572;SDS011;52214;50.940;13.996;2023-03-15T07:05:56;3.07;;;1.03;;
65572;SDS011;52214;50.940;13.996;2023-03-15T07:08:23;2.92;;;0.80;;
65572;SDS011;52214;50.940;13.996;2023-03-15T07:10:50;3.47;;;1.20;;
65572;SDS011;52214;50.940;13.996;2023-03-15T07:13:16;2.85;;;1.08;;
65572;SDS011;52214;50.940;13.996;2023-03-15T07:15:43;3.30;;;1.20;;
65572;SDS011;52214;50.940;13.996;2023-03-15T07:18:08;3.47;;;1.10;;
65572;SDS011;52214;50.940;13.996;2023-03-15T07:20:35;4.15;;;1.00;;
65572;SDS011;52214;50.940;13.996;2023-03-15T07:23:00;3.92;;;1.20;;
65572;SDS011;52214;50.940;13.996;2023-03-15T07:25:26;5.23;;;1.40;;
65572;SDS011;52214;50.940;13.996;2023-03-15T07:27:52;3.20;;;1.00;;
65572;SDS011;52214;50.940;13.996;2023-03-15T07:30:18;3.15;;;1.10;;
65572;SDS011;52214;50.940;13.996;2023-03-15T07:32:45;4.47;;;1.35;;
65572;SDS011;52214;50.940;13.996;2023-03-15T07:35:11;3.30;;;1.30;;
65572;SDS011;52214;50.940;13.996;2023-03-15T07:37:37;3.10;;;1.20;;
65572;SDS011;52214;50.940;13.996;2023-03-15T07:40:03;3.63;;;1.40;;
65572;SDS011;52214;50.940;13.996;2023-03-15T07:42:36;4.10;;;1.43;;
65572;SDS011;52214;50.940;13.996;2023-03-15T07:45:04;4.20;;;1.52;;
65572;SDS011;52214;50.940;13.996;2023-03-15T07:47:30;4.50;;;1.55;;
65572;SDS011;52214;50.940;13.996;2023-03-15T07:49:56;4.78;;;1.65;;
65572;SDS011;52214;50.940;13.996;2023-03-15T07:52:22;3.73;;;1.40;;
65572;SDS011;52214;50.940;13.996;2023-03-15T07:54:48;4.20;;;1.42;;
65572;SDS011;52214;50.940;13.996;2023-03-15T07:57:14;4.00;;;1.65;;
65572;SDS011;52214;50.940;13.996;2023-03-15T07:59:40;3.47;;;1.30;;
65572;SDS011;52214;50.940;13.996;2023-03-15T08:02:06;3.42;;;1.30;;
65572;SDS011;52214;50.940;13.996;2023-03-15T08:04:34;3.60;;;1.33;;
65572;SDS011;52214;50.940;13.996;2023-03-15T08:07:00;3.15;;;1.30;;
65572;SDS011;52214;50.940;13.996;2023-03-15T08:09:25;4.00;;;1.57;;
65572;SDS011;52214;50.940;13.996;2023-03-15T08:11:51;4.10;;;1.27;;
65572;SDS011;52214;50.940;13.996;2023-03-15T08:14:17;3.30;;;1.25;;
65572;SDS011;52214;50.940;13.996;2023-03-15T08:16:42;4.40;;;1.43;;
65572;SDS011;52214;50.940;13.996;2023-03-15T08:19:08;4.25;;;1.70;;
65572;SDS011;52214;50.940;13.996;2023-03-15T08:21:34;3.30;;;1.30;;
65572;SDS011;52214;50.940;13.996;2023-03-15T08:24:00;3.85;;;1.40;;
65572;SDS011;52214;50.940;13.996;2023-03-15T08:26:26;3.40;;;1.55;;
65572;SDS011;52214;50.940;13.996;2023-03-15T08:28:54;4.25;;;1.80;;
65572;SDS011;52214;50.940;13.996;2023-03-15T08:31:20;3.50;;;1.50;;
65572;SDS011;52214;50.940;13.996;2023-03-15T08:33:46;3.87;;;1.47;;
65572;SDS011;52214;50.940;13.996;2023-03-15T08:36:12;4.15;;;1.70;;
65572;SDS011;52214;50.940;13.996;2023-03-15T08:38:38;4.93;;;1.80;;
65572;SDS011;52214;50.940;13.996;2023-03-15T08:43:52;4.35;;;1.70;;
65572;SDS011;52214;50.940;13.996;2023-03-15T08:46:17;4.27;;;1.90;;
65572;SDS011;52214;50.940;13.996;2023-03-15T08:48:46;4.55;;;1.70;;
65572;SDS011;52214;50.940;13.996;2023-03-15T08:51:11;4.53;;;1.60;;
65572;SDS011;52214;50.940;13.996;2023-03-15T08:53:37;5.22;;;1.83;;
65572;SDS011;52214;50.940;13.996;2023-03-15T08:56:04;3.92;;;1.70;;
65572;SDS011;52214;50.940;13.996;2023-03-15T08:58:29;5.07;;;1.98;;
65572;SDS011;52214;50.940;13.996;2023-03-15T09:00:55;4.47;;;1.90;;
65572;SDS011;52214;50.940;13.996;2023-03-15T09:03:21;4.03;;;1.80;;
65572;SDS011;52214;50.940;13.996;2023-03-15T09:05:48;5.17;;;2.10;;
65572;SDS011;52214;50.940;13.996;2023-03-15T09:08:13;4.20;;;1.70;;
65572;SDS011;52214;50.940;13.996;2023-03-15T09:10:42;4.38;;;1.80;;
65572;SDS011;52214;50.940;13.996;2023-03-15T09:13:07;3.90;;;1.67;;
65572;SDS011;52214;50.940;13.996;2023-03-15T09:15:33;6.10;;;1.90;;
65572;SDS011;52214;50.940;13.996;2023-03-15T09:17:59;4.20;;;2.00;;
65572;SDS011;52214;50.940;13.996;2023-03-15T09:20:24;5.18;;;1.90;;
65572;SDS011;52214;50.940;13.996;2023-03-15T09:22:53;4.00;;;1.80;;
65572;SDS011;52214;50.940;13.996;2023-03-15T09:25:21;4.25;;;1.80;;
65572;SDS011;52214;50.940;13.996;2023-03-15T09:27:48;5.35;;;1.80;;
65572;SDS011;52214;50.940;13.996;2023-03-15T09:30:14;5.25;;;2.08;;
65572;SDS011;52214;50.940;13.996;2023-03-15T09:32:40;4.45;;;1.70;;
65572;SDS011;52214;50.940;13.996;2023-03-15T09:35:07;3.57;;;1.50;;
65572;SDS011;52214;50.940;13.996;2023-03-15T09:37:37;4.97;;;1.30;;
65572;SDS011;52214;50.940;13.996;2023-03-15T09:40:03;4.20;;;1.73;;
65572;SDS011;52214;50.940;13.996;2023-03-15T09:42:51;3.65;;;1.63;;
65572;SDS011;52214;50.940;13.996;2023-03-15T09:48:31;3.70;;;1.55;;
65572;SDS011;52214;50.940;13.996;2023-03-15T09:51:10;3.45;;;1.67;;
65572;SDS011;52214;50.940;13.996;2023-03-15T09:54:04;5.45;;;1.70;;
65572;SDS011;52214;50.940;13.996;2023-03-15T09:56:45;4.68;;;1.75;;
65572;SDS011;52214;50.940;13.996;2023-03-15T09:59:17;3.50;;;1.50;;
65572;SDS011;52214;50.940;13.996;2023-03-15T10:01:46;4.70;;;1.55;;
65572;SDS011;52214;50.940;13.996;2023-03-15T10:06:55;4.25;;;1.38;;
65572;SDS011;52214;50.940;13.996;2023-03-15T10:09:24;4.63;;;1.73;;
65572;SDS011;52214;50.940;13.996;2023-03-15T10:17:29;4.30;;;1.50;;
65572;SDS011;52214;50.940;13.996;2023-03-15T10:20:20;5.80;;;1.30;;
65572;SDS011;52214;50.940;13.996;2023-03-15T10:25:42;7.57;;;1.87;;
65572;SDS011;52214;50.940;13.996;2023-03-15T10:28:12;6.40;;;1.25;;
65572;SDS011;52214;50.940;13.996;2023-03-15T10:30:46;7.00;;;1.60;;
65572;SDS011;52214;50.940;13.996;2023-03-15T10:33:14;7.30;;;1.40;;
65572;SDS011;52214;50.940;13.996;2023-03-15T10:35:47;4.07;;;1.17;;
65572;SDS011;52214;50.940;13.996;2023-03-15T10:38:17;5.83;;;1.40;;
65572;SDS011;52214;50.940;13.996;2023-03-15T10:40:45;7.00;;;1.50;;
65572;SDS011;52214;50.940;13.996;2023-03-15T10:43:18;5.07;;;1.30;;
65572;SDS011;52214;50.940;13.996;2023-03-15T10:45:48;3.97;;;1.40;;
65572;SDS011;52214;50.940;13.996;2023-03-15T10:48:25;5.35;;;1.38;;
65572;SDS011;52214;50.940;13.996;2023-03-15T10:50:53;5.85;;;1.25;;
65572;SDS011;52214;50.940;13.996;2023-03-15T10:53:19;4.78;;;1.35;;
65572;SDS011;52214;50.940;13.996;2023-03-15T10:55:46;6.73;;;1.50;;
65572;SDS011;52214;50.940;13.996;2023-03-15T10:58:20;7.03;;;1.70;;
65572;SDS011;52214;50.940;13.996;2023-03-15T11:00:59;5.47;;;1.40;;
65572;SDS011;52214;50.940;13.996;2023-03-15T11:03:32;9.90;;;1.60;;
65572;SDS011;52214;50.940;13.996;2023-03-15T11:05:59;5.60;;;1.55;;
65572;SDS011;52214;50.940;13.996;2023-03-15T11:08:39;6.13;;;1.50;;
65572;SDS011;52214;50.940;13.996;2023-03-15T11:11:06;4.70;;;1.42;;
65572;SDS011;52214;50.940;13.996;2023-03-15T11:13:35;6.15;;;1.20;;
65572;SDS011;52214;50.940;13.996;2023-03-15T11:21:31;4.87;;;1.30;;
65572;SDS011;52214;50.940;13.996;2023-03-15T11:23:59;3.88;;;1.13;;
65572;SDS011;52214;50.940;13.996;2023-03-15T11:26:30;4.55;;;1.20;;
65572;SDS011;52214;50.940;13.996;2023-03-15T11:29:03;3.28;;;1.10;;
65572;SDS011;52214;50.940;13.996;2023-03-15T11:31:32;4.90;;;1.20;;
65572;SDS011;52214;50.940;13.996;2023-03-15T11:34:20;6.53;;;1.37;;
65572;SDS011;52214;50.940;13.996;2023-03-15T11:36:58;5.30;;;1.40;;
65572;SDS011;52214;50.940;13.996;2023-03-15T11:39:33;5.38;;;1.23;;
65572;SDS011;52214;50.940;13.996;2023-03-15T11:42:07;5.03;;;1.23;;
65572;SDS011;52214;50.940;13.996;2023-03-15T11:44:40;7.28;;;1.20;;
65572;SDS011;52214;50.940;13.996;2023-03-15T11:47:31;5.10;;;1.20;;
65572;SDS011;52214;50.940;13.996;2023-03-15T11:50:04;3.10;;;1.08;;
65572;SDS011;52214;50.940;13.996;2023-03-15T11:52:30;4.22;;;1.10;;
65572;SDS011;52214;50.940;13.996;2023-03-15T11:54:56;5.43;;;1.33;;
65572;SDS011;52214;50.940;13.996;2023-03-15T11:59:53;4.27;;;1.30;;
65572;SDS011;52214;50.940;13.996;2023-03-15T12:04:52;4.60;;;1.30;;
65572;SDS011;52214;50.940;13.996;2023-03-15T12:09:48;6.50;;;1.60;;
65572;SDS011;52214;50.940;13.996;2023-03-15T12:17:44;6.30;;;2.15;;
65572;SDS011;52214;50.940;13.996;2023-03-15T12:25:37;6.18;;;2.47;;
65572;SDS011;52214;50.940;13.996;2023-03-15T12:28:18;6.57;;;2.70;;
65572;SDS011;52214;50.940;13.996;2023-03-15T12:30:51;5.80;;;2.30;;
65572;SDS011;52214;50.940;13.996;2023-03-15T12:33:21;5.75;;;2.40;;
65572;SDS011;52214;50.940;13.996;2023-03-15T12:35:48;6.57;;;2.30;;
65572;SDS011;52214;50.940;13.996;2023-03-15T12:38:18;6.22;;;2.38;;
65572;SDS011;52214;50.940;13.996;2023-03-15T12:40:48;6.05;;;2.05;;
65572;SDS011;52214;50.940;13.996;2023-03-15T12:49:05;4.60;;;2.33;;
65572;SDS011;52214;50.940;13.996;2023-03-15T12:51:44;9.10;;;2.55;;
65572;SDS011;52214;50.940;13.996;2023-03-15T12:54:24;5.28;;;2.38;;
65572;SDS011;52214;50.940;13.996;2023-03-15T12:56:59;5.90;;;2.28;;
65572;SDS011;52214;50.940;13.996;2023-03-15T13:02:37;6.03;;;2.33;;
65572;SDS011;52214;50.940;13.996;2023-03-15T13:08:29;6.03;;;2.10;;
65572;SDS011;52214;50.940;13.996;2023-03-15T13:14:09;6.80;;;1.20;;
65572;SDS011;52214;50.940;13.996;2023-03-15T13:17:04;4.30;;;1.30;;
65572;SDS011;52214;50.940;13.996;2023-03-15T13:19:42;4.88;;;1.20;;
65572;SDS011;52214;50.940;13.996;2023-03-15T13:22:13;4.43;;;1.20;;
65572;SDS011;52214;50.940;13.996;2023-03-15T13:27:55;5.32;;;1.13;;
65572;SDS011;52214;50.940;13.996;2023-03-15T13:35:59;4.38;;;1.10;;
65572;SDS011;52214;50.940;13.996;2023-03-15T13:38:32;4.07;;;1.08;;
65572;SDS011;52214;50.940;13.996;2023-03-15T13:41:29;3.53;;;1.00;;
65572;SDS011;52214;50.940;13.996;2023-03-15T13:43:59;3.90;;;1.00;;
65572;SDS011;52214;50.940;13.996;2023-03-15T13:46:28;3.10;;;0.80;;
65572;SDS011;52214;50.940;13.996;2023-03-15T13:48:55;4.57;;;0.80;;
65572;SDS011;52214;50.940;13.996;2023-03-15T13:53:52;4.35;;;0.95;;
65572;SDS011;52214;50.940;13.996;2023-03-15T13:56:26;3.77;;;0.80;;
65572;SDS011;52214;50.940;13.996;2023-03-15T13:58:55;6.68;;;1.25;;
65572;SDS011;52214;50.940;13.996;2023-03-15T14:01:22;4.97;;;1.05;;
65572;SDS011;52214;50.940;13.996;2023-03-15T14:03:57;3.75;;;1.05;;
65572;SDS011;52214;50.940;13.996;2023-03-15T14:06:30;3.90;;;0.70;;
65572;SDS011;52214;50.940;13.996;2023-03-15T14:09:09;7.37;;;1.00;;
65572;SDS011;52214;50.940;13.996;2023-03-15T14:11:41;3.33;;;1.00;;
65572;SDS011;52214;50.940;13.996;2023-03-15T14:14:25;6.22;;;1.35;;
65572;SDS011;52214;50.940;13.996;2023-03-15T14:16:52;5.73;;;0.93;;
65572;SDS011;52214;50.940;13.996;2023-03-15T14:19:21;3.83;;;1.10;;
65572;SDS011;52214;50.940;13.996;2023-03-15T14:24:40;3.90;;;0.80;;
65572;SDS011;52214;50.940;13.996;2023-03-15T14:27:08;4.70;;;0.82;;
65572;SDS011;52214;50.940;13.996;2023-03-15T14:29:47;5.47;;;0.90;;
65572;SDS011;52214;50.940;13.996;2023-03-15T14:35:00;4.85;;;0.90;;
65572;SDS011;52214;50.940;13.996;2023-03-15T14:37:40;5.25;;;0.70;;
65572;SDS011;52214;50.940;13.996;2023-03-15T14:42:42;4.70;;;0.77;;
65572;SDS011;52214;50.940;13.996;2023-03-15T14:45:10;2.95;;;0.80;;
65572;SDS011;52214;50.940;13.996;2023-03-15T14:47:38;2.95;;;0.80;;
65572;SDS011;52214;50.940;13.996;2023-03-15T14:50:14;2.95;;;0.70;;
65572;SDS011;52214;50.940;13.996;2023-03-15T14:52:42;3.92;;;1.10;;
65572;SDS011;52214;50.940;13.996;2023-03-15T14:55:12;3.70;;;1.07;;
65572;SDS011;52214;50.940;13.996;2023-03-15T14:57:42;3.85;;;1.05;;
65572;SDS011;52214;50.940;13.996;2023-03-15T15:00:16;4.18;;;1.25;;
65572;SDS011;52214;50.940;13.996;2023-03-15T15:02:43;2.90;;;0.90;;
65572;SDS011;52214;50.940;13.996;2023-03-15T15:05:15;4.43;;;0.90;;
65572;SDS011;52214;50.940;13.996;2023-03-15T15:07:57;3.28;;;0.80;;
65572;SDS011;52214;50.940;13.996;2023-03-15T15:10:28;3.00;;;0.88;;
65572;SDS011;52214;50.940;13.996;2023-03-15T15:12:56;5.40;;;1.20;;
65572;SDS011;52214;50.940;13.996;2023-03-15T15:15:21;3.83;;;0.90;;
65572;SDS011;52214;50.940;13.996;2023-03-15T15:17:47;3.27;;;0.97;;
65572;SDS011;52214;50.940;13.996;2023-03-15T15:20:14;3.97;;;1.08;;
65572;SDS011;52214;50.940;13.996;2023-03-15T15:22:41;3.85;;;0.90;;
65572;SDS011;52214;50.940;13.996;2023-03-15T15:25:12;3.70;;;0.90;;
65572;SDS011;52214;50.940;13.996;2023-03-15T15:27:42;3.28;;;0.90;;
65572;SDS011;52214;50.940;13.996;2023-03-15T15:30:12;2.87;;;0.80;;
65572;SDS011;52214;50.940;13.996;2023-03-15T15:32:39;4.20;;;1.10;;
65572;SDS011;52214;50.940;13.996;2023-03-15T15:35:06;3.10;;;1.00;;
65572;SDS011;52214;50.940;13.996;2023-03-15T15:37:33;2.65;;;0.90;;
65572;SDS011;52214;50.940;13.996;2023-03-15T15:39:59;3.25;;;0.82;;
65572;SDS011;52214;50.940;13.996;2023-03-15T15:42:25;2.90;;;0.90;;
65572;SDS011;52214;50.940;13.996;2023-03-15T15:44:50;3.85;;;1.10;;
65572;SDS011;52214;50.940;13.996;2023-03-15T15:47:16;3.87;;;1.10;;
65572;SDS011;52214;50.940;13.996;2023-03-15T15:49:41;4.00;;;0.80;;
65572;SDS011;52214;50.940;13.996;2023-03-15T15:52:08;4.10;;;1.02;;
65572;SDS011;52214;50.940;13.996;2023-03-15T15:54:36;3.73;;;0.97;;
65572;SDS011;52214;50.940;13.996;2023-03-15T15:57:02;3.40;;;0.90;;
65572;SDS011;52214;50.940;13.996;2023-03-15T15:59:28;2.47;;;0.80;;
65572;SDS011;52214;50.940;13.996;2023-03-15T16:01:55;3.65;;;0.90;;
65572;SDS011;52214;50.940;13.996;2023-03-15T16:04:22;3.30;;;1.00;;